createdAt,value
2022-12-05T00:02:28.502Z,-26.38
2022-12-05T00:04:57.459Z,-26.34
2022-12-05T00:07:26.376Z,-26.26
2022-12-05T00:09:55.539Z,-26.70
2022-12-05T00:12:24.578Z,-26.26
2022-12-05T00:14:53.450Z,-26.88
2022-12-05T00:17:22.825Z,-26.68
2022-12-05T00:19:56.531Z,-26.43
2022-12-05T00:22:26.105Z,-26.51
2022-12-05T00:24:55.109Z,-26.51
2022-12-05T00:27:23.768Z,-26.35
2022-12-05T00:29:52.811Z,-26.51
2022-12-05T00:32:24.434Z,-26.61
2022-12-05T00:34:53.549Z,-26.68
2022-12-05T00:37:22.786Z,-26.50
2022-12-05T00:39:51.634Z,-26.54
2022-12-05T00:42:20.924Z,-26.88
2022-12-05T00:44:53.224Z,-26.54
2022-12-05T00:47:22.024Z,-26.79
2022-12-05T00:49:51.234Z,-27.11
2022-12-05T00:52:20.498Z,-26.49
2022-12-05T00:54:49.650Z,-26.46
2022-12-05T00:57:18.528Z,-26.54
2022-12-05T00:59:47.262Z,-26.52
2022-12-05T01:02:16.188Z,-26.50
2022-12-05T01:04:44.912Z,-26.55
2022-12-05T01:07:14.021Z,-26.68
2022-12-05T01:09:43.121Z,-26.66
2022-12-05T01:12:12.077Z,-26.67
2022-12-05T01:14:41.290Z,-26.61
2022-12-05T01:17:11.194Z,-26.65
2022-12-05T01:19:40.093Z,-26.66
2022-12-05T01:22:09.139Z,-26.84
2022-12-05T01:24:37.847Z,-26.74
2022-12-05T01:27:06.912Z,-26.78
2022-12-05T01:29:35.815Z,-26.86
2022-12-05T01:32:05.058Z,-26.77
2022-12-05T01:34:33.809Z,-26.54
2022-12-05T01:37:03.354Z,-26.70
2022-12-05T01:39:32.323Z,-26.71
2022-12-05T01:42:05.516Z,-26.81
2022-12-05T01:44:34.796Z,-26.50
2022-12-05T01:47:06.405Z,-26.53
2022-12-05T01:49:43.905Z,-26.52
2022-12-05T01:52:19.473Z,-26.48
2022-12-05T01:54:51.605Z,-26.39
2022-12-05T01:57:20.362Z,-26.34
2022-12-05T01:59:54.386Z,-26.28
2022-12-05T02:02:23.321Z,-26.18
2022-12-05T02:05:29.432Z,-26.25
2022-12-05T02:08:03.868Z,-26.34
2022-12-05T02:10:38.294Z,-26.39
2022-12-05T02:13:26.934Z,-26.48
2022-12-05T02:16:24.917Z,-26.30
2022-12-05T02:19:10.834Z,-26.45
2022-12-05T02:21:42.601Z,-26.27
2022-12-05T02:24:34.780Z,-26.44
2022-12-05T02:27:18.441Z,-26.28
2022-12-05T02:29:56.167Z,-26.31
2022-12-05T02:33:02.160Z,-26.36
2022-12-05T02:35:39.668Z,-26.45
2022-12-05T02:38:18.483Z,-26.55
2022-12-05T02:41:28.497Z,-26.58
2022-12-05T02:44:05.901Z,-26.75
2022-12-05T02:46:39.778Z,-26.72
2022-12-05T02:49:12.973Z,-26.76
2022-12-05T02:51:49.437Z,-26.83
2022-12-05T02:54:22.804Z,-26.82
2022-12-05T02:56:53.940Z,-26.73
2022-12-05T02:59:23.647Z,-26.62
2022-12-05T03:01:53.335Z,-26.91
2022-12-05T03:04:25.278Z,-26.76
2022-12-05T03:07:01.485Z,-26.81
2022-12-05T03:09:41.015Z,-26.62
2022-12-05T03:12:21.279Z,-26.63
2022-12-05T03:15:16.400Z,-26.92
2022-12-05T03:17:55.228Z,-27.08
2022-12-05T03:20:38.064Z,-26.71
2022-12-05T03:23:25.141Z,-26.85
2022-12-05T03:26:16.345Z,-26.71
2022-12-05T03:28:59.315Z,-26.86
2022-12-05T03:31:49.992Z,-26.91
2022-12-05T03:34:31.301Z,-26.75
2022-12-05T03:37:08.163Z,-26.83
2022-12-05T03:39:45.291Z,-26.73
2022-12-05T03:42:17.367Z,-26.77
2022-12-05T03:44:58.454Z,-26.73
2022-12-05T03:48:01.858Z,-26.57
2022-12-05T03:50:31.299Z,-26.67
2022-12-05T03:53:19.492Z,-26.63
2022-12-05T03:55:59.694Z,-26.64
2022-12-05T03:58:36.383Z,-26.46
2022-12-05T04:01:08.041Z,-26.52
2022-12-05T04:03:52.547Z,-26.42
2022-12-05T04:06:35.853Z,-26.54
2022-12-05T04:09:31.085Z,-26.26
2022-12-05T04:12:05.271Z,-26.46
2022-12-05T04:14:41.168Z,-26.26
2022-12-05T04:17:22.430Z,-26.42
2022-12-05T04:20:14.555Z,-26.21
2022-12-05T04:22:44.342Z,-26.29
2022-12-05T04:25:33.896Z,-26.17
2022-12-05T04:28:40.346Z,-25.99
2022-12-05T04:31:13.156Z,-26.57
2022-12-05T04:34:08.669Z,-25.88
2022-12-05T04:36:43.834Z,-25.96
2022-12-05T04:39:20.264Z,-25.82
2022-12-05T04:41:56.668Z,-25.60
2022-12-05T04:44:35.649Z,-25.43
2022-12-05T04:47:06.983Z,-25.51
2022-12-05T04:49:37.775Z,-25.37
2022-12-05T04:52:11.596Z,-25.37
2022-12-05T04:54:50.363Z,-25.37
2022-12-05T04:57:40.096Z,-25.14
2022-12-05T05:00:09.329Z,-25.09
2022-12-05T05:03:18.538Z,-25.07
2022-12-05T05:05:51.782Z,-25.08
2022-12-05T05:08:24.018Z,-24.91
2022-12-05T05:10:56.993Z,-24.96
2022-12-05T05:13:26.003Z,-24.65
2022-12-05T05:15:54.768Z,-24.65
2022-12-05T05:18:26.038Z,-24.52
2022-12-05T05:20:54.853Z,-24.35
2022-12-05T05:23:23.614Z,-24.21
2022-12-05T05:25:56.947Z,-24.28
2022-12-05T05:28:25.421Z,-24.24
2022-12-05T05:30:54.135Z,-24.16
2022-12-05T05:33:22.919Z,-23.99
2022-12-05T05:35:54.472Z,-23.81
2022-12-05T05:38:23.128Z,-23.77
2022-12-05T05:40:53.336Z,-23.65
2022-12-05T05:43:21.954Z,-23.58
2022-12-05T05:45:50.730Z,-23.27
2022-12-05T05:48:19.487Z,-23.55
2022-12-05T05:50:48.377Z,-23.43
2022-12-05T05:53:17.054Z,-23.02
2022-12-05T05:55:45.889Z,-23.10
2022-12-05T05:58:14.589Z,-23.09
2022-12-05T06:00:43.414Z,-22.72
2022-12-05T06:03:12.375Z,-22.66
2022-12-05T06:05:41.295Z,-22.41
2022-12-05T06:08:10.186Z,-22.31
2022-12-05T06:10:42.907Z,-22.13
2022-12-05T06:13:11.658Z,-22.08
2022-12-05T06:15:40.439Z,-22.14
2022-12-05T06:18:09.430Z,-21.88
2022-12-05T06:20:40.401Z,-21.93
2022-12-05T06:23:08.914Z,-21.90
2022-12-05T06:25:37.659Z,-22.24
2022-12-05T06:28:06.444Z,-21.68
2022-12-05T06:30:35.267Z,-21.71
2022-12-05T06:33:03.939Z,-21.36
2022-12-05T06:35:32.722Z,-21.25
2022-12-05T06:38:01.440Z,-21.33
2022-12-05T06:40:30.397Z,-21.18
2022-12-05T06:42:59.196Z,-21.52
2022-12-05T06:45:27.961Z,-21.18
2022-12-05T06:47:59.456Z,-20.90
2022-12-05T06:50:28.319Z,-21.00
2022-12-05T06:52:56.938Z,-20.92
2022-12-05T06:55:25.633Z,-20.95
2022-12-05T06:57:54.581Z,-20.77
2022-12-05T07:00:41.759Z,-20.63
2022-12-05T07:03:12.217Z,-21.08
2022-12-05T07:05:40.897Z,-20.57
2022-12-05T07:08:09.687Z,-20.49
2022-12-05T07:10:38.337Z,-20.43
2022-12-05T07:13:07.173Z,-20.36
2022-12-05T07:15:35.871Z,-20.14
2022-12-05T07:18:04.670Z,-20.01
2022-12-05T07:20:49.538Z,-19.92
2022-12-05T07:23:22.358Z,-19.88
2022-12-05T07:25:51.035Z,-19.82
2022-12-05T07:28:20.157Z,-19.83
2022-12-05T07:30:48.926Z,-19.74
2022-12-05T07:33:17.535Z,-19.90
2022-12-05T07:35:46.256Z,-19.43
2022-12-05T07:38:14.901Z,-19.34
2022-12-05T07:40:43.625Z,-19.31
2022-12-05T07:43:12.520Z,-19.32
2022-12-05T07:45:41.236Z,-19.16
2022-12-05T07:48:13.260Z,-19.17
2022-12-05T07:50:44.575Z,-19.09
2022-12-05T07:53:13.523Z,-18.95
2022-12-05T07:55:42.364Z,-18.93
2022-12-05T07:58:11.023Z,-18.85
2022-12-05T08:00:40.319Z,-18.90
2022-12-05T08:03:09.318Z,-19.01
2022-12-05T08:05:38.807Z,-18.74
2022-12-05T08:08:07.610Z,-18.68
2022-12-05T08:10:36.627Z,-18.70
2022-12-05T08:13:05.375Z,-18.76
2022-12-05T08:15:37.434Z,-18.67
2022-12-05T08:18:06.135Z,-18.70
2022-12-05T08:20:35.292Z,-18.55
2022-12-05T08:23:04.363Z,-18.55
2022-12-05T08:25:36.075Z,-18.58
2022-12-05T08:28:04.813Z,-18.62
2022-12-05T08:30:35.685Z,-18.62
2022-12-05T08:33:04.658Z,-18.76
2022-12-05T08:35:37.860Z,-18.66
2022-12-05T08:38:06.680Z,-18.76
2022-12-05T08:40:35.936Z,-18.80
2022-12-05T08:43:05.337Z,-18.86
2022-12-05T08:45:37.514Z,-18.85
2022-12-05T08:48:07.318Z,-19.03
2022-12-05T08:50:36.275Z,-18.89
2022-12-05T08:53:05.399Z,-19.07
2022-12-05T08:55:38.516Z,-19.52
2022-12-05T08:58:07.825Z,-19.21
2022-12-05T09:00:36.894Z,-19.07
2022-12-05T09:03:06.287Z,-19.25
2022-12-05T09:05:38.159Z,-19.25
2022-12-05T09:08:07.839Z,-19.37
2022-12-05T09:10:38.206Z,-19.35
2022-12-05T09:13:07.335Z,-19.43
2022-12-05T09:15:39.716Z,-19.54
2022-12-05T09:18:09.075Z,-19.44
2022-12-05T09:20:40.554Z,-19.59
2022-12-05T09:23:14.454Z,-19.69
2022-12-05T09:25:44.815Z,-19.60
2022-12-05T09:28:13.914Z,-19.58
2022-12-05T09:30:44.634Z,-19.62
2022-12-05T09:33:13.664Z,-19.59
2022-12-05T09:35:42.688Z,-19.63
2022-12-05T09:38:14.016Z,-19.83
2022-12-05T09:40:44.188Z,-19.69
2022-12-05T09:43:50.325Z,-19.71
2022-12-05T09:46:31.467Z,-19.74
2022-12-05T09:49:06.314Z,-19.80
2022-12-05T09:51:37.687Z,-20.34
2022-12-05T09:54:06.714Z,-19.90
2022-12-05T09:56:35.305Z,-19.94
2022-12-05T09:59:06.358Z,-20.04
2022-12-05T10:02:01.865Z,-20.03
2022-12-05T10:04:35.796Z,-20.03
2022-12-05T10:07:33.008Z,-20.25
2022-12-05T10:10:29.357Z,-20.26
2022-12-05T10:13:26.550Z,-20.47
2022-12-05T10:16:01.460Z,-20.56
2022-12-05T10:18:59.777Z,-20.43
2022-12-05T10:21:31.314Z,-20.50
2022-12-05T10:24:14.522Z,-21.09
2022-12-05T10:26:47.771Z,-20.81
2022-12-05T10:29:22.676Z,-20.71
2022-12-05T10:31:58.990Z,-21.49
2022-12-05T10:34:35.645Z,-21.37
2022-12-05T10:37:16.053Z,-21.10
2022-12-05T10:39:45.886Z,-20.91
2022-12-05T10:42:29.474Z,-21.46
2022-12-05T10:45:01.876Z,-21.20
2022-12-05T10:47:32.192Z,-21.29
2022-12-05T10:50:32.830Z,-21.25
2022-12-05T10:53:04.731Z,-21.62
2022-12-05T10:55:50.587Z,-21.65
2022-12-05T10:58:31.228Z,-21.48
2022-12-05T11:01:10.094Z,-21.66
2022-12-05T11:03:44.107Z,-21.77
2022-12-05T11:06:25.737Z,-21.61
2022-12-05T11:09:19.612Z,-21.70
2022-12-05T11:12:10.303Z,-21.74
2022-12-05T11:14:39.067Z,-22.03
2022-12-05T11:17:08.275Z,-22.08
2022-12-05T11:19:39.334Z,-21.99
2022-12-05T11:22:08.813Z,-22.21
2022-12-05T11:24:39.968Z,-22.12
2022-12-05T11:27:18.302Z,-22.17
2022-12-05T11:29:58.473Z,-22.54
2022-12-05T11:32:31.577Z,-22.35
2022-12-05T11:35:18.221Z,-22.90
2022-12-05T11:37:59.037Z,-22.34
2022-12-05T11:40:38.791Z,-22.38
2022-12-05T11:43:55.422Z,-22.46
2022-12-05T11:46:35.570Z,-22.57
2022-12-05T11:49:49.268Z,-22.82
2022-12-05T11:53:09.190Z,-22.68
2022-12-05T11:55:55.846Z,-22.91
2022-12-05T11:58:43.043Z,-22.70
2022-12-05T12:01:47.024Z,-22.75
2022-12-05T12:04:53.144Z,-22.84
2022-12-05T12:07:32.945Z,-22.87
2022-12-05T12:10:27.884Z,-22.87
2022-12-05T12:12:57.149Z,-22.87
2022-12-05T12:15:45.626Z,-22.86
2022-12-05T12:18:32.810Z,-23.02
2022-12-05T12:21:24.959Z,-22.98
2022-12-05T12:24:22.424Z,-22.92
2022-12-05T12:27:17.736Z,-22.93
2022-12-05T12:29:56.357Z,-22.95
2022-12-05T12:32:59.314Z,-22.93
2022-12-05T12:36:02.609Z,-23.23
2022-12-05T12:39:01.057Z,-23.12
2022-12-05T12:41:55.599Z,-23.07
2022-12-05T12:44:27.363Z,-23.07
2022-12-05T12:47:02.813Z,-23.32
2022-12-05T12:50:00.447Z,-23.34
2022-12-05T12:52:43.513Z,-23.18
2022-12-05T12:55:50.305Z,-23.21
2022-12-05T12:58:49.834Z,-23.31
2022-12-05T13:01:40.425Z,-23.38
2022-12-05T13:04:16.867Z,-23.68
2022-12-05T13:06:51.060Z,-23.56
2022-12-05T13:09:42.941Z,-23.60
2022-12-05T13:12:22.785Z,-23.61
2022-12-05T13:15:05.643Z,-23.50
2022-12-05T13:17:35.150Z,-23.56
2022-12-05T13:20:04.299Z,-23.95
2022-12-05T13:22:33.613Z,-23.50
2022-12-05T13:25:02.555Z,-23.91
2022-12-05T13:27:31.932Z,-23.51
2022-12-05T13:30:09.400Z,-23.34
2022-12-05T13:32:43.428Z,-23.49
2022-12-05T13:35:43.717Z,-23.55
2022-12-05T13:38:41.868Z,-23.92
2022-12-05T13:41:31.776Z,-23.58
2022-12-05T13:44:06.584Z,-23.57
2022-12-05T13:46:39.677Z,-23.52
2022-12-05T13:49:43.156Z,-23.44
2022-12-05T13:52:26.222Z,-23.48
2022-12-05T13:55:15.547Z,-23.51
2022-12-05T13:57:46.578Z,-23.54
2022-12-05T14:00:15.536Z,-23.62
2022-12-05T14:02:46.887Z,-23.55
2022-12-05T14:05:15.998Z,-23.53
2022-12-05T14:07:51.726Z,-23.63
2022-12-05T14:10:30.467Z,-23.55
2022-12-05T14:13:21.124Z,-23.58
2022-12-05T14:15:51.915Z,-23.75
2022-12-05T14:18:53.868Z,-23.59
2022-12-05T14:21:49.052Z,-23.75
2022-12-05T14:24:26.886Z,-23.71
2022-12-05T14:27:08.415Z,-23.81
2022-12-05T14:30:02.697Z,-24.06
2022-12-05T14:32:33.522Z,-23.87
2022-12-05T14:35:05.531Z,-23.91
2022-12-05T14:37:53.073Z,-24.10
2022-12-05T14:40:30.237Z,-24.00
2022-12-05T14:43:02.797Z,-24.43
2022-12-05T14:45:48.857Z,-23.90
2022-12-05T14:48:17.779Z,-23.89
2022-12-05T14:50:55.793Z,-24.59
2022-12-05T14:53:33.359Z,-24.06
2022-12-05T14:56:02.082Z,-24.09
2022-12-05T14:58:38.281Z,-24.19
2022-12-05T15:01:15.302Z,-24.23
2022-12-05T15:04:12.732Z,-24.32
2022-12-05T15:06:54.159Z,-24.19
2022-12-05T15:09:41.256Z,-24.15
2022-12-05T15:12:25.891Z,-24.32
2022-12-05T15:15:08.695Z,-24.32
2022-12-05T15:17:47.715Z,-24.53
2022-12-05T15:20:41.098Z,-24.29
2022-12-05T15:23:40.589Z,-24.24
2022-12-05T15:29:27.878Z,-24.38
2022-12-05T15:32:09.051Z,-24.47
2022-12-05T15:35:06.100Z,-24.42
2022-12-05T15:37:45.387Z,-24.32
2022-12-05T15:40:22.625Z,-24.20
2022-12-05T15:42:56.928Z,-24.20
2022-12-05T15:45:28.733Z,-24.36
2022-12-05T15:48:00.795Z,-24.11
2022-12-05T15:50:36.074Z,-24.09
2022-12-05T15:53:26.124Z,-24.13
2022-12-05T15:56:01.783Z,-24.71
2022-12-05T15:58:35.065Z,-24.24
2022-12-05T16:01:24.148Z,-24.31
2022-12-05T16:04:17.646Z,-24.19
2022-12-05T16:06:56.644Z,-24.60
2022-12-05T16:09:34.084Z,-24.47
2022-12-05T16:12:16.823Z,-24.38
2022-12-05T16:15:03.165Z,-24.37
2022-12-05T16:17:43.340Z,-24.54
2022-12-05T16:20:18.926Z,-24.37
2022-12-05T16:22:51.277Z,-24.59
2022-12-05T16:25:26.343Z,-24.66
2022-12-05T16:28:03.653Z,-24.67
2022-12-05T16:30:33.551Z,-24.69
2022-12-05T16:33:07.535Z,-24.60
2022-12-05T16:35:46.249Z,-24.84
2022-12-05T16:38:20.561Z,-24.65
2022-12-05T16:40:49.505Z,-24.67
2022-12-05T16:43:35.589Z,-24.77
2022-12-05T16:46:14.283Z,-24.68
2022-12-05T16:48:50.700Z,-24.80
2022-12-05T16:51:20.949Z,-24.69
2022-12-05T16:53:57.468Z,-25.31
2022-12-05T16:56:32.722Z,-24.62
2022-12-05T16:59:06.590Z,-24.62
2022-12-05T17:01:39.103Z,-24.68
2022-12-05T17:04:12.287Z,-24.61
2022-12-05T17:06:41.337Z,-24.98
2022-12-05T17:09:13.988Z,-24.64
2022-12-05T17:11:46.097Z,-24.75
2022-12-05T17:14:17.412Z,-24.85
2022-12-05T17:16:46.939Z,-24.60
2022-12-05T17:19:16.019Z,-24.70
2022-12-05T17:21:48.038Z,-24.76
2022-12-05T17:24:19.273Z,-24.80
2022-12-05T17:26:48.500Z,-24.78
2022-12-05T17:29:18.090Z,-25.00
2022-12-05T17:31:49.209Z,-24.87
2022-12-05T17:34:19.703Z,-24.74
2022-12-05T17:36:48.668Z,-24.77
2022-12-05T17:39:17.937Z,-24.76
2022-12-05T17:41:47.517Z,-24.65
2022-12-05T17:44:17.050Z,-24.96
2022-12-05T17:46:46.602Z,-24.82
2022-12-05T17:49:18.815Z,-24.82
2022-12-05T17:52:20.138Z,-24.83
2022-12-05T17:54:38.649Z,-24.83
2022-12-05T17:57:07.555Z,-24.79
2022-12-05T17:59:39.161Z,-24.63
2022-12-05T18:02:08.206Z,-24.87
2022-12-05T18:04:37.773Z,-24.67
2022-12-05T18:07:07.235Z,-25.62
2022-12-05T18:09:36.230Z,-24.86
2022-12-05T18:12:05.412Z,-24.69
2022-12-05T18:14:36.887Z,-24.88
2022-12-05T18:17:05.876Z,-24.98
2022-12-05T18:19:35.682Z,-24.91
2022-12-05T18:22:05.417Z,-25.01
2022-12-05T18:24:34.434Z,-24.81
2022-12-05T18:27:03.053Z,-24.95
2022-12-05T18:29:32.584Z,-25.58
2022-12-05T18:32:01.942Z,-24.97
2022-12-05T18:34:30.765Z,-24.91
2022-12-05T18:36:59.945Z,-25.00
2022-12-05T18:39:28.743Z,-24.99
2022-12-05T18:41:57.600Z,-24.78
2022-12-05T18:44:26.290Z,-24.94
2022-12-05T18:46:55.082Z,-24.91
2022-12-05T18:49:23.806Z,-24.92
2022-12-05T18:51:53.248Z,-24.92
2022-12-05T18:54:22.667Z,-25.51
2022-12-05T18:56:53.955Z,-24.93
2022-12-05T18:59:24.309Z,-24.92
2022-12-05T19:01:53.284Z,-25.13
2022-12-05T19:04:23.420Z,-24.94
2022-12-05T19:06:58.491Z,-25.10
2022-12-05T19:09:33.404Z,-25.03
2022-12-05T19:12:02.665Z,-25.02
2022-12-05T19:14:33.723Z,-24.99
2022-12-05T19:17:03.982Z,-25.00
2022-12-05T19:19:33.000Z,-24.87
2022-12-05T19:22:02.924Z,-25.15
2022-12-05T19:24:31.823Z,-24.99
2022-12-05T19:27:01.091Z,-24.96
2022-12-05T19:29:29.887Z,-25.11
2022-12-05T19:31:58.772Z,-25.03
2022-12-05T19:34:27.745Z,-25.16
2022-12-05T19:36:57.407Z,-25.10
2022-12-05T19:39:27.080Z,-25.02
2022-12-05T19:42:01.041Z,-24.94
2022-12-05T19:44:30.364Z,-25.18
2022-12-05T19:47:00.402Z,-24.99
2022-12-05T19:49:29.406Z,-25.10
2022-12-05T19:51:58.265Z,-25.17
2022-12-05T19:54:27.529Z,-25.08
2022-12-05T19:56:59.088Z,-25.24
2022-12-05T19:59:27.987Z,-24.92
2022-12-05T20:01:57.073Z,-25.11
2022-12-05T20:04:25.979Z,-25.01
2022-12-05T20:06:54.984Z,-25.05
2022-12-05T20:09:25.187Z,-24.92
2022-12-05T20:11:56.132Z,-25.02
2022-12-05T20:14:26.448Z,-25.03
2022-12-05T20:16:56.328Z,-24.98
2022-12-05T20:19:25.548Z,-24.84
2022-12-05T20:21:56.096Z,-24.73
2022-12-05T20:24:24.790Z,-25.32
2022-12-05T20:26:53.751Z,-24.65
2022-12-05T20:29:22.464Z,-24.85
2022-12-05T20:31:52.987Z,-24.81
2022-12-05T20:34:21.614Z,-24.85
2022-12-05T20:36:50.285Z,-24.83
2022-12-05T20:39:19.317Z,-24.93
2022-12-05T20:41:51.010Z,-25.50
2022-12-05T20:44:20.069Z,-24.96
2022-12-05T20:46:53.475Z,-24.89
2022-12-05T20:49:23.105Z,-24.90
2022-12-05T20:51:51.841Z,-25.18
2022-12-05T20:54:20.740Z,-25.58
2022-12-05T20:56:50.363Z,-25.55
2022-12-05T20:59:19.326Z,-25.23
2022-12-05T21:01:48.757Z,-24.92
2022-12-05T21:04:17.864Z,-25.11
2022-12-05T21:06:47.472Z,-25.06
2022-12-05T21:09:27.005Z,-25.63
2022-12-05T21:11:56.549Z,-25.06
2022-12-05T21:14:26.045Z,-25.10
2022-12-05T21:16:55.003Z,-25.10
2022-12-05T21:19:28.017Z,-25.09
2022-12-05T21:21:57.554Z,-25.03
2022-12-05T21:24:26.579Z,-25.13
2022-12-05T21:26:55.704Z,-25.23
2022-12-05T21:29:24.742Z,-25.21
2022-12-05T21:31:53.678Z,-25.13
2022-12-05T21:34:22.566Z,-25.23
2022-12-05T21:36:51.569Z,-24.97
2022-12-05T21:39:20.432Z,-25.04
2022-12-05T21:41:49.358Z,-24.90
2022-12-05T21:44:20.188Z,-25.02
2022-12-05T21:46:49.507Z,-25.01
2022-12-05T21:49:18.415Z,-24.99
2022-12-05T21:51:47.291Z,-25.17
2022-12-05T21:54:16.158Z,-25.13
2022-12-05T21:56:46.064Z,-25.23
2022-12-05T21:59:14.714Z,-25.17
2022-12-05T22:01:43.736Z,-25.35
2022-12-05T22:04:12.426Z,-25.81
2022-12-05T22:06:41.167Z,-25.45
2022-12-05T22:09:09.730Z,-25.28
2022-12-05T22:11:38.401Z,-25.42
2022-12-05T22:14:07.322Z,-25.37
2022-12-05T22:16:36.145Z,-25.32
2022-12-05T22:19:05.331Z,-25.86
2022-12-05T22:21:35.128Z,-25.48
2022-12-05T22:24:04.101Z,-25.52
2022-12-05T22:26:32.980Z,-25.92
2022-12-05T22:29:01.813Z,-25.49
2022-12-05T22:31:30.732Z,-25.63
2022-12-05T22:34:00.046Z,-25.42
2022-12-05T22:36:29.265Z,-25.58
2022-12-05T22:38:59.454Z,-25.58
2022-12-05T22:41:28.393Z,-25.60
2022-12-05T22:43:59.727Z,-25.87
2022-12-05T22:46:29.909Z,-25.34
2022-12-05T22:48:59.319Z,-25.46
2022-12-05T22:51:28.793Z,-25.38
2022-12-05T22:53:58.089Z,-25.97
2022-12-05T22:56:29.225Z,-25.36
2022-12-05T22:59:00.312Z,-25.37
2022-12-05T23:01:34.565Z,-25.58
2022-12-05T23:04:10.548Z,-25.56
2022-12-05T23:06:39.956Z,-25.47
2022-12-05T23:09:11.404Z,-25.46
2022-12-05T23:11:40.169Z,-25.52
2022-12-05T23:14:09.891Z,-25.53
2022-12-05T23:16:40.200Z,-25.44
2022-12-05T23:19:09.386Z,-25.33
2022-12-05T23:21:40.202Z,-25.53
2022-12-05T23:24:11.602Z,-25.59
2022-12-05T23:26:47.345Z,-25.56
2022-12-05T23:29:16.619Z,-25.50
2022-12-05T23:31:45.967Z,-25.63
2022-12-05T23:34:14.958Z,-25.46
2022-12-05T23:36:43.738Z,-25.45
2022-12-05T23:39:12.539Z,-25.66
2022-12-05T23:41:41.608Z,-25.67
2022-12-05T23:44:10.389Z,-25.67
2022-12-05T23:46:42.065Z,-25.65
2022-12-05T23:49:11.572Z,-25.46
2022-12-05T23:51:41.067Z,-25.51
2022-12-05T23:54:13.513Z,-25.63
2022-12-05T23:56:42.490Z,-25.58
2022-12-05T23:59:11.510Z,-25.57
